Time;durP1;ratioP1;P1;durP2;ratioP2;P2;SDS_P1;SDS_P2;PMS_P1;PMS_P2;Temp;Humidity;BMP_temperature;BMP_pressure;BME280_temperature;BME280_humidity;BME280_pressure;Samples;Min_cycle;Max_cycle;Signal;HPM_P1;HPM_P2
2022/02/26 00:00:16;;;;;;;30.67;4.93;;;3.80;99.90;;;;;;5115221;27;20069;-56
2022/02/26 00:02:42;;;;;;;30.23;4.88;;;3.90;99.90;;;;;;5119810;27;20030;-56
2022/02/26 00:05:08;;;;;;;35.65;5.47;;;3.90;99.90;;;;;;5129015;27;20484;-57
2022/02/26 00:07:33;;;;;;;23.90;5.13;;;4.00;99.90;;;;;;5118595;27;20031;-56
2022/02/26 00:10:00;;;;;;;29.50;5.15;;;4.00;99.90;;;;;;5109892;27;20088;-56
2022/02/26 00:12:25;;;;;;;33.53;5.57;;;4.00;99.90;;;;;;5135986;27;20076;-56
2022/02/26 00:14:51;;;;;;;39.00;5.53;;;4.00;99.90;;;;;;5130080;27;20430;-56
2022/02/26 00:17:16;;;;;;;22.35;4.50;;;4.10;99.90;;;;;;5126743;27;20046;-56
2022/02/26 00:19:42;;;;;;;28.13;6.32;;;4.10;99.90;;;;;;5135424;27;20023;-56
2022/02/26 00:22:07;;;;;;;26.27;5.57;;;4.10;99.90;;;;;;5129563;27;20028;-56
2022/02/26 00:24:33;;;;;;;27.80;5.28;;;4.00;99.90;;;;;;5127839;27;20534;-56
2022/02/26 00:26:58;;;;;;;34.58;4.78;;;4.00;99.90;;;;;;5132469;27;20072;-56
2022/02/26 00:29:24;;;;;;;34.38;5.05;;;4.00;99.90;;;;;;5129118;27;20433;-56
2022/02/26 00:31:50;;;;;;;34.22;5.72;;;4.00;99.90;;;;;;5120838;27;20051;-56
2022/02/26 00:34:15;;;;;;;29.23;5.97;;;4.00;99.90;;;;;;5116973;27;20372;-56
2022/02/26 00:36:41;;;;;;;34.00;5.80;;;4.00;99.90;;;;;;5142025;27;20541;-56
2022/02/26 00:39:06;;;;;;;28.73;5.68;;;4.10;99.90;;;;;;5134639;27;20019;-56
2022/02/26 00:41:32;;;;;;;23.75;4.72;;;4.10;99.90;;;;;;5133993;27;20047;-56
2022/02/26 00:43:57;;;;;;;41.67;5.93;;;4.00;99.90;;;;;;5122641;27;20050;-56
2022/02/26 00:46:23;;;;;;;47.35;6.20;;;4.00;99.90;;;;;;5134515;27;20200;-56
2022/02/26 00:51:32;;;;;;;25.67;4.60;;;3.90;99.90;;;;;;5123730;27;20044;-57
2022/02/26 00:53:58;;;;;;;30.48;6.20;;;3.90;99.90;;;;;;5128985;27;20024;-57
2022/02/26 00:56:24;;;;;;;25.48;5.70;;;3.90;99.90;;;;;;5125902;28;20028;-57
2022/02/26 00:58:51;;;;;;;43.17;7.13;;;3.90;99.90;;;;;;5107415;28;20170;-57
2022/02/26 01:01:17;;;;;;;30.23;5.55;;;3.90;99.90;;;;;;5113968;28;20023;-57
2022/02/26 01:03:42;;;;;;;37.80;5.72;;;4.00;99.90;;;;;;5108977;28;20103;-57
2022/02/26 01:06:08;;;;;;;25.90;5.68;;;3.90;99.90;;;;;;5108980;28;20035;-57
2022/02/26 01:08:33;;;;;;;35.47;5.97;;;3.90;99.90;;;;;;5124028;28;20024;-57
2022/02/26 01:10:59;;;;;;;40.38;5.60;;;3.90;99.90;;;;;;5134150;27;20114;-57
2022/02/26 01:13:24;;;;;;;28.73;5.40;;;3.90;99.90;;;;;;5141876;27;20039;-57
2022/02/26 01:15:50;;;;;;;38.17;6.72;;;3.80;99.90;;;;;;5129305;28;20099;-57
2022/02/26 01:18:15;;;;;;;47.65;9.00;;;3.80;99.90;;;;;;5118358;27;20034;-57
2022/02/26 01:20:41;;;;;;;31.92;4.70;;;3.80;99.90;;;;;;5115185;28;20034;-57
2022/02/26 01:23:06;;;;;;;22.77;5.72;;;3.70;99.90;;;;;;5113857;27;20031;-57
2022/02/26 01:25:32;;;;;;;35.30;5.10;;;3.70;99.90;;;;;;5117051;28;20019;-57
2022/02/26 01:27:58;;;;;;;32.45;6.35;;;3.60;99.90;;;;;;5129879;27;20034;-57
2022/02/26 01:30:24;;;;;;;31.60;5.10;;;3.60;99.90;;;;;;5131447;27;20034;-57
2022/02/26 01:32:49;;;;;;;26.52;5.38;;;3.60;99.90;;;;;;5108599;28;20426;-57
2022/02/26 01:35:15;;;;;;;30.77;5.72;;;3.60;99.90;;;;;;5108922;28;20024;-57
2022/02/26 01:37:40;;;;;;;35.50;6.03;;;3.60;99.90;;;;;;5124949;28;20375;-57
2022/02/26 01:40:06;;;;;;;28.98;4.93;;;3.60;99.90;;;;;;5118885;27;20027;-57
2022/02/26 01:42:32;;;;;;;35.20;5.80;;;3.70;99.90;;;;;;5132011;27;20019;-57
2022/02/26 01:44:57;;;;;;;26.45;4.72;;;3.70;99.90;;;;;;5129094;28;20015;-57
2022/02/26 01:47:23;;;;;;;31.65;4.95;;;3.70;99.90;;;;;;5128492;28;20452;-57
2022/02/26 01:49:49;;;;;;;33.80;5.63;;;3.80;99.90;;;;;;5133452;27;20030;-57
2022/02/26 01:52:17;;;;;;;36.33;5.38;;;3.80;99.90;;;;;;5142474;27;20667;-57
2022/02/26 01:54:48;;;;;;;35.42;6.22;;;3.70;99.90;;;;;;5137880;27;20384;-57
2022/02/26 01:57:14;;;;;;;28.80;5.80;;;3.70;99.90;;;;;;5132142;27;20396;-57
2022/02/26 01:59:40;;;;;;;24.83;5.45;;;3.70;99.90;;;;;;5131420;27;20031;-57
2022/02/26 02:02:05;;;;;;;30.42;4.88;;;3.70;99.90;;;;;;5117823;27;20031;-57
2022/02/26 02:04:32;;;;;;;39.47;6.50;;;3.70;99.90;;;;;;5111565;28;20080;-57
2022/02/26 02:06:57;;;;;;;39.42;6.40;;;3.70;99.90;;;;;;5121947;27;20027;-57
2022/02/26 02:09:24;;;;;;;39.72;7.95;;;3.70;99.90;;;;;;5131290;27;20035;-57
2022/02/26 02:11:50;;;;;;;33.05;6.22;;;3.70;99.90;;;;;;5126824;27;20077;-57
2022/02/26 02:14:16;;;;;;;32.53;5.10;;;3.80;99.90;;;;;;5131490;27;20019;-57
2022/02/26 02:16:41;;;;;;;32.40;5.03;;;3.70;99.90;;;;;;5131625;27;20034;-57
2022/02/26 02:19:09;;;;;;;29.08;5.82;;;3.70;99.90;;;;;;5131394;27;20524;-58
2022/02/26 02:21:35;;;;;;;27.35;4.60;;;3.80;99.90;;;;;;5128058;27;20490;-56
2022/02/26 02:24:01;;;;;;;25.33;5.22;;;3.80;99.90;;;;;;5141752;27;20023;-56
2022/02/26 02:26:28;;;;;;;33.35;6.10;;;3.80;99.90;;;;;;5144565;27;20036;-56
2022/02/26 02:28:53;;;;;;;38.28;5.80;;;3.80;99.90;;;;;;5138179;27;20118;-56
2022/02/26 02:31:19;;;;;;;35.13;6.40;;;3.90;99.90;;;;;;5132912;27;20152;-56
2022/02/26 02:33:46;;;;;;;34.75;4.60;;;3.90;99.90;;;;;;5110648;28;20050;-56
2022/02/26 02:36:12;;;;;;;35.70;5.43;;;3.90;99.90;;;;;;5110826;27;20297;-56
2022/02/26 02:38:38;;;;;;;30.10;5.00;;;3.90;99.90;;;;;;5110395;28;20047;-56
2022/02/26 02:41:04;;;;;;;50.70;6.22;;;3.90;99.90;;;;;;5129165;27;20025;-56
2022/02/26 02:43:30;;;;;;;36.42;6.35;;;3.90;99.90;;;;;;5146291;27;20030;-56
2022/02/26 02:45:56;;;;;;;32.55;6.88;;;3.90;99.90;;;;;;5151923;27;20164;-56
2022/02/26 02:48:22;;;;;;;45.78;6.53;;;3.90;99.90;;;;;;5138282;27;20032;-56
2022/02/26 02:50:47;;;;;;;42.65;6.63;;;3.90;99.90;;;;;;5121420;27;20073;-56
2022/02/26 02:53:16;;;;;;;45.22;7.13;;;3.90;99.90;;;;;;5118643;27;20027;-56
2022/02/26 02:55:42;;;;;;;47.83;8.40;;;4.00;99.90;;;;;;5111057;28;20031;-56
2022/02/26 02:58:08;;;;;;;42.63;7.10;;;3.90;99.90;;;;;;5122054;27;20063;-57
2022/02/26 03:00:33;;;;;;;40.00;6.22;;;4.00;99.90;;;;;;5134446;27;20047;-57
2022/02/26 03:02:59;;;;;;;26.40;4.78;;;4.00;99.90;;;;;;5112177;27;20032;-57
2022/02/26 03:05:24;;;;;;;45.00;7.32;;;4.00;99.90;;;;;;5110389;28;20073;-56
2022/02/26 03:07:51;;;;;;;30.98;7.15;;;4.10;99.90;;;;;;5110337;28;20395;-56
2022/02/26 03:10:17;;;;;;;37.42;4.95;;;4.10;99.90;;;;;;5110367;27;20377;-56
2022/02/26 03:12:43;;;;;;;46.60;6.82;;;4.10;99.90;;;;;;5129626;27;20092;-56
2022/02/26 03:15:09;;;;;;;37.08;5.45;;;4.10;99.90;;;;;;5131378;27;20047;-56
2022/02/26 03:17:35;;;;;;;29.80;5.45;;;4.10;99.90;;;;;;5130793;27;20019;-57
2022/02/26 03:20:01;;;;;;;50.47;6.05;;;4.10;99.90;;;;;;5123956;27;20457;-57
2022/02/26 03:22:27;;;;;;;23.77;5.50;;;4.20;99.90;;;;;;5130891;27;20049;-57
2022/02/26 03:24:52;;;;;;;31.00;5.20;;;4.20;99.90;;;;;;5131076;27;20032;-57
2022/02/26 03:27:18;;;;;;;28.50;5.70;;;4.20;99.90;;;;;;5130538;27;20022;-57
2022/02/26 03:29:43;;;;;;;24.73;4.72;;;4.20;99.90;;;;;;5139580;27;20225;-57
2022/02/26 03:32:10;;;;;;;32.92;6.85;;;4.20;99.90;;;;;;5117159;27;20046;-57
2022/02/26 03:34:36;;;;;;;27.70;6.15;;;4.20;99.90;;;;;;5110374;28;20504;-57
2022/02/26 03:37:03;;;;;;;34.63;6.10;;;4.20;99.90;;;;;;5110243;28;20266;-57
2022/02/26 03:39:31;;;;;;;36.75;6.25;;;4.30;99.90;;;;;;5115174;27;20027;-57
2022/02/26 03:41:58;;;;;;;36.45;4.90;;;4.30;99.90;;;;;;5140592;27;20019;-57
2022/02/26 03:44:24;;;;;;;26.20;5.20;;;4.30;99.90;;;;;;5151108;27;20022;-56
2022/02/26 03:46:49;;;;;;;32.47;5.15;;;4.30;99.90;;;;;;5151381;27;20493;-56
2022/02/26 03:49:15;;;;;;;37.88;6.32;;;4.30;99.90;;;;;;5147086;27;20032;-56
2022/02/26 03:51:40;;;;;;;36.45;6.07;;;4.30;99.90;;;;;;5114213;27;20391;-56
2022/02/26 03:54:06;;;;;;;39.55;6.25;;;4.30;99.90;;;;;;5109642;28;20038;-56
2022/02/26 03:56:31;;;;;;;38.97;6.20;;;4.30;99.90;;;;;;5108608;28;20055;-56
2022/02/26 03:58:57;;;;;;;40.15;5.97;;;4.30;99.90;;;;;;5122287;27;20022;-56
2022/02/26 04:01:23;;;;;;;37.22;5.72;;;4.30;99.90;;;;;;5148101;27;20097;-56
2022/02/26 04:03:50;;;;;;;28.38;4.53;;;4.30;99.90;;;;;;5108629;28;20062;-56
2022/02/26 04:06:16;;;;;;;27.27;5.75;;;4.30;99.90;;;;;;5114574;27;20202;-56
2022/02/26 04:08:42;;;;;;;35.20;5.68;;;4.30;99.90;;;;;;5130393;27;20479;-56
2022/02/26 04:11:07;;;;;;;27.83;5.72;;;4.30;99.90;;;;;;5124557;27;20061;-56
2022/02/26 04:13:33;;;;;;;29.08;6.47;;;4.30;99.90;;;;;;5135526;27;20077;-56
2022/02/26 04:15:59;;;;;;;38.08;5.50;;;4.30;99.90;;;;;;5129657;27;20472;-56
2022/02/26 04:18:25;;;;;;;38.20;6.70;;;4.30;99.90;;;;;;5129826;27;20019;-57
2022/02/26 04:20:51;;;;;;;35.60;6.07;;;4.30;99.90;;;;;;5109764;27;20015;-56
2022/02/26 04:23:17;;;;;;;31.92;6.10;;;4.30;99.90;;;;;;5141625;27;20113;-57
2022/02/26 04:25:42;;;;;;;29.52;5.53;;;4.30;99.90;;;;;;5151003;27;20492;-57
2022/02/26 04:28:08;;;;;;;34.95;6.30;;;4.30;99.90;;;;;;5150939;27;20034;-57
2022/02/26 04:30:34;;;;;;;25.95;5.60;;;4.30;99.90;;;;;;5141769;27;20035;-56
2022/02/26 04:33:00;;;;;;;31.90;5.95;;;4.30;99.90;;;;;;5128684;27;20086;-56
2022/02/26 04:35:26;;;;;;;31.50;6.10;;;4.30;99.90;;;;;;5126812;27;20019;-56
2022/02/26 04:37:52;;;;;;;34.45;6.28;;;4.30;99.90;;;;;;5140511;27;20041;-57
2022/02/26 04:40:17;;;;;;;36.53;5.32;;;4.30;99.90;;;;;;5137939;27;20105;-57
2022/02/26 04:42:43;;;;;;;30.83;6.22;;;4.30;99.90;;;;;;5140302;27;20019;-55
2022/02/26 04:45:11;;;;;;;33.47;5.95;;;4.30;99.90;;;;;;5144121;27;20035;-55
2022/02/26 04:47:37;;;;;;;30.30;5.70;;;4.30;99.90;;;;;;5137321;27;20038;-55
2022/02/26 04:50:06;;;;;;;24.77;5.22;;;4.30;99.90;;;;;;5133477;27;20042;-55
2022/02/26 04:52:32;;;;;;;24.05;5.05;;;4.30;99.90;;;;;;5124047;27;20031;-56
2022/02/26 04:54:57;;;;;;;24.25;5.20;;;4.30;99.90;;;;;;5139083;27;20023;-56
2022/02/26 04:57:23;;;;;;;27.30;6.53;;;4.30;99.90;;;;;;5132396;27;20031;-56
2022/02/26 04:59:48;;;;;;;29.45;6.28;;;4.30;99.90;;;;;;5120681;27;20062;-56
2022/02/26 05:02:14;;;;;;;43.22;5.75;;;4.30;99.90;;;;;;5139694;27;20015;-56
2022/02/26 05:04:40;;;;;;;32.88;7.38;;;4.30;99.90;;;;;;5125102;27;20080;-57
2022/02/26 05:07:05;;;;;;;19.15;5.25;;;4.30;99.90;;;;;;5118046;28;20035;-57
2022/02/26 05:09:31;;;;;;;35.90;7.10;;;4.30;99.90;;;;;;5115477;28;20035;-55
2022/02/26 05:11:56;;;;;;;39.25;7.07;;;4.30;99.90;;;;;;5118933;27;20063;-55
2022/02/26 05:14:22;;;;;;;39.03;7.07;;;4.40;99.90;;;;;;5124746;27;20016;-55
2022/02/26 05:16:47;;;;;;;25.45;5.07;;;4.30;99.90;;;;;;5118982;28;20385;-55
2022/02/26 05:19:13;;;;;;;48.00;7.45;;;4.40;99.90;;;;;;5118489;27;20435;-55
2022/02/26 05:21:38;;;;;;;31.45;5.95;;;4.40;99.90;;;;;;5116348;28;20039;-55
2022/02/26 05:24:04;;;;;;;24.48;5.65;;;4.40;99.90;;;;;;5117336;28;20028;-56
2022/02/26 05:26:30;;;;;;;29.83;7.47;;;4.30;99.90;;;;;;5126536;28;20437;-57
2022/02/26 05:28:55;;;;;;;29.02;5.18;;;4.40;99.90;;;;;;5128635;27;20020;-57
2022/02/26 05:31:21;;;;;;;35.40;5.43;;;4.40;99.90;;;;;;5127988;27;20508;-57
2022/02/26 05:33:46;;;;;;;27.15;5.60;;;4.40;99.90;;;;;;5129729;27;20023;-57
2022/02/26 05:36:12;;;;;;;24.17;4.95;;;4.40;99.90;;;;;;5129398;27;20023;-57
2022/02/26 05:38:38;;;;;;;32.53;5.68;;;4.40;99.90;;;;;;5119399;27;20030;-57
2022/02/26 05:41:05;;;;;;;30.70;5.47;;;4.40;99.90;;;;;;5120519;27;20023;-57
2022/02/26 05:43:30;;;;;;;29.15;6.60;;;4.40;99.90;;;;;;5120904;27;20191;-57
2022/02/26 05:45:56;;;;;;;28.60;5.82;;;4.30;99.90;;;;;;5123728;27;20023;-57
2022/02/26 05:48:22;;;;;;;29.17;5.80;;;4.30;99.90;;;;;;5121411;27;20027;-57
2022/02/26 05:50:47;;;;;;;44.05;6.38;;;4.30;99.90;;;;;;5119286;27;20099;-57
2022/02/26 05:53:12;;;;;;;36.70;5.47;;;4.40;99.90;;;;;;5115068;27;20142;-56
2022/02/26 05:55:38;;;;;;;37.20;6.32;;;4.40;99.90;;;;;;5121809;27;20038;-57
2022/02/26 05:58:04;;;;;;;38.03;7.22;;;4.30;99.90;;;;;;5119808;27;20020;-57
2022/02/26 06:00:29;;;;;;;57.13;6.25;;;4.30;99.90;;;;;;5122163;27;20076;-56
2022/02/26 06:02:55;;;;;;;32.38;5.32;;;4.30;99.90;;;;;;5128309;27;20025;-56
2022/02/26 06:05:20;;;;;;;33.15;5.88;;;4.30;99.90;;;;;;5144740;27;20052;-56
2022/02/26 06:07:46;;;;;;;36.05;5.40;;;4.30;99.90;;;;;;5153179;27;20027;-56
2022/02/26 06:10:11;;;;;;;36.85;6.25;;;4.30;99.90;;;;;;5135829;27;20037;-56
2022/02/26 06:12:37;;;;;;;28.00;6.00;;;4.30;99.90;;;;;;5148394;27;20018;-56
2022/02/26 06:15:03;;;;;;;34.15;5.90;;;4.30;99.90;;;;;;5151885;27;20030;-56
2022/02/26 06:17:29;;;;;;;40.92;7.18;;;4.30;99.90;;;;;;5153117;27;20018;-56
2022/02/26 06:19:55;;;;;;;38.80;7.38;;;4.30;99.90;;;;;;5140841;27;20106;-56
2022/02/26 06:22:20;;;;;;;23.88;5.53;;;4.30;99.90;;;;;;5123276;27;20552;-56
2022/02/26 06:24:46;;;;;;;39.75;6.07;;;4.30;99.90;;;;;;5132176;27;20027;-56
2022/02/26 06:27:12;;;;;;;45.10;6.55;;;4.30;99.90;;;;;;5132251;27;20023;-56
2022/02/26 06:29:38;;;;;;;37.42;6.55;;;4.30;99.90;;;;;;5128819;27;20058;-55
2022/02/26 06:32:05;;;;;;;38.13;5.70;;;4.30;99.90;;;;;;5110087;28;20073;-56
2022/02/26 06:34:31;;;;;;;41.40;7.30;;;4.30;99.90;;;;;;5113046;27;20429;-57
2022/02/26 06:36:57;;;;;;;29.95;7.07;;;4.30;99.90;;;;;;5128204;27;20011;-57
2022/02/26 06:39:22;;;;;;;45.08;7.57;;;4.40;99.90;;;;;;5120683;27;20015;-56
2022/02/26 06:41:48;;;;;;;32.75;6.40;;;4.40;99.90;;;;;;5123727;27;20430;-56
2022/02/26 06:44:14;;;;;;;35.95;7.03;;;4.40;99.90;;;;;;5121741;27;20055;-56
2022/02/26 06:46:41;;;;;;;27.88;6.78;;;4.40;99.90;;;;;;5121358;27;20027;-55
2022/02/26 06:49:07;;;;;;;33.45;6.90;;;4.40;99.90;;;;;;5118100;27;20046;-57
2022/02/26 06:51:33;;;;;;;35.58;6.13;;;4.40;99.90;;;;;;5119524;27;20416;-56
2022/02/26 06:54:00;;;;;;;33.00;6.28;;;4.40;99.90;;;;;;5122476;27;20016;-56
2022/02/26 06:56:26;;;;;;;35.22;7.00;;;4.40;99.90;;;;;;5122613;27;20019;-57
2022/02/26 06:58:53;;;;;;;27.83;5.75;;;4.40;99.90;;;;;;5117229;27;20109;-57
2022/02/26 07:01:19;;;;;;;35.85;6.60;;;4.50;99.90;;;;;;5126233;27;20476;-56
2022/02/26 07:03:44;;;;;;;28.70;5.47;;;4.40;99.90;;;;;;5120629;27;20027;-57
2022/02/26 07:06:10;;;;;;;30.17;6.35;;;4.50;99.90;;;;;;5120702;27;20121;-57
2022/02/26 07:08:36;;;;;;;37.65;8.52;;;4.50;99.90;;;;;;5121013;27;20464;-56
2022/02/26 07:11:01;;;;;;;29.75;6.15;;;4.50;99.90;;;;;;5118809;27;20323;-56
2022/02/26 07:13:27;;;;;;;40.13;7.00;;;4.50;99.90;;;;;;5119877;27;20046;-56
2022/02/26 07:15:53;;;;;;;48.97;7.07;;;4.50;99.90;;;;;;5120466;27;20519;-56
2022/02/26 07:18:19;;;;;;;34.33;7.50;;;4.50;99.90;;;;;;5118731;27;20207;-56
2022/02/26 07:20:44;;;;;;;28.35;6.47;;;4.60;99.90;;;;;;5120808;27;20083;-56
2022/02/26 07:23:10;;;;;;;39.88;6.82;;;4.60;99.90;;;;;;5119651;27;20042;-56
2022/02/26 07:25:36;;;;;;;26.38;5.90;;;4.70;99.90;;;;;;5118865;27;20039;-55
2022/02/26 07:28:01;;;;;;;32.15;5.43;;;4.70;99.90;;;;;;5121016;27;20027;-55
2022/02/26 07:30:27;;;;;;;22.73;5.63;;;4.80;99.90;;;;;;5118828;27;20527;-55
2022/02/26 07:32:53;;;;;;;41.78;5.57;;;4.90;99.90;;;;;;5120455;27;20102;-55
2022/02/26 07:35:18;;;;;;;33.67;5.00;;;4.90;99.90;;;;;;5118383;27;20488;-55
2022/02/26 07:37:44;;;;;;;41.45;6.97;;;5.00;99.90;;;;;;5120301;27;20019;-52
2022/02/26 07:40:11;;;;;;;31.17;7.00;;;5.10;99.90;;;;;;5117601;27;20031;-50
2022/02/26 07:42:37;;;;;;;36.90;7.03;;;5.10;99.90;;;;;;5115855;27;20131;-51
2022/02/26 07:45:04;;;;;;;30.30;7.20;;;5.20;99.90;;;;;;5117560;27;20199;-48
2022/02/26 07:47:30;;;;;;;25.60;5.78;;;5.20;99.90;;;;;;5125353;27;20387;-52
2022/02/26 07:49:56;;;;;;;34.25;8.07;;;5.20;99.90;;;;;;5116774;27;20042;-52
2022/02/26 07:52:22;;;;;;;33.05;6.10;;;5.20;99.90;;;;;;5117323;27;20465;-51
2022/02/26 07:54:51;;;;;;;37.50;5.93;;;5.20;99.90;;;;;;5117579;27;20027;-51
2022/02/26 07:57:17;;;;;;;45.92;7.20;;;5.30;99.90;;;;;;5122832;27;20025;-51
2022/02/26 07:59:43;;;;;;;34.97;6.30;;;5.30;99.90;;;;;;5124558;27;20104;-53
2022/02/26 08:02:08;;;;;;;33.30;6.55;;;5.30;99.90;;;;;;5117179;27;20043;-53
2022/02/26 08:04:34;;;;;;;24.20;6.10;;;5.30;99.90;;;;;;5118742;27;20112;-53
2022/02/26 08:06:59;;;;;;;30.55;6.07;;;5.40;99.90;;;;;;5114217;27;20026;-52
2022/02/26 08:09:26;;;;;;;40.25;7.10;;;5.50;99.90;;;;;;5117043;27;20478;-52
2022/02/26 08:11:51;;;;;;;27.45;6.43;;;5.60;99.90;;;;;;5130363;27;20077;-52
2022/02/26 08:14:18;;;;;;;26.98;6.47;;;5.70;99.90;;;;;;5120802;27;20464;-53
2022/02/26 08:16:43;;;;;;;36.47;6.70;;;5.80;99.90;;;;;;5117812;27;20007;-52
2022/02/26 08:19:09;;;;;;;38.78;6.68;;;5.80;99.90;;;;;;5119640;27;20045;-53
2022/02/26 08:21:35;;;;;;;35.95;6.72;;;5.80;99.90;;;;;;5117972;27;20027;-53
2022/02/26 08:24:01;;;;;;;34.67;6.38;;;5.80;99.90;;;;;;5123867;27;20123;-52
2022/02/26 08:26:27;;;;;;;50.28;7.13;;;5.70;99.90;;;;;;5118170;27;20027;-52
2022/02/26 08:28:52;;;;;;;30.42;8.20;;;5.80;99.90;;;;;;5116286;27;20057;-53
2022/02/26 08:31:18;;;;;;;45.03;6.78;;;5.80;99.90;;;;;;5122061;27;20024;-56
2022/02/26 08:33:43;;;;;;;27.98;6.30;;;5.80;99.90;;;;;;5119351;27;20031;-56
2022/02/26 08:36:09;;;;;;;40.05;7.50;;;5.80;99.90;;;;;;5116573;27;20055;-55
2022/02/26 08:38:35;;;;;;;43.45;7.40;;;5.80;99.90;;;;;;5115759;27;20030;-56
2022/02/26 08:41:00;;;;;;;39.97;5.63;;;5.80;99.90;;;;;;5119227;27;20133;-56
2022/02/26 08:43:27;;;;;;;31.02;6.32;;;5.90;99.90;;;;;;5118710;27;20043;-56
2022/02/26 08:45:53;;;;;;;29.63;7.43;;;6.00;99.90;;;;;;5116092;27;20492;-56
2022/02/26 08:48:19;;;;;;;36.72;6.40;;;6.10;99.90;;;;;;5119154;27;20480;-56
2022/02/26 08:50:45;;;;;;;26.77;6.07;;;6.20;99.90;;;;;;5122197;27;20100;-56
2022/02/26 08:53:10;;;;;;;22.73;5.18;;;6.30;99.90;;;;;;5121002;27;20391;-52
2022/02/26 08:55:36;;;;;;;33.35;5.82;;;6.30;99.90;;;;;;5118622;27;20028;-53
2022/02/26 08:58:02;;;;;;;25.63;6.80;;;6.30;99.90;;;;;;5118160;28;20024;-52
2022/02/26 09:00:28;;;;;;;25.30;6.20;;;6.40;99.90;;;;;;5119194;27;20143;-52
2022/02/26 09:02:54;;;;;;;26.75;5.95;;;6.50;99.90;;;;;;5122333;27;20054;-53
2022/02/26 09:05:20;;;;;;;27.38;5.57;;;6.60;99.90;;;;;;5122516;27;20069;-53
2022/02/26 09:07:45;;;;;;;31.65;6.05;;;6.80;99.90;;;;;;5123895;27;20034;-54
2022/02/26 09:10:12;;;;;;;26.67;6.53;;;6.80;99.90;;;;;;5126808;27;20035;-52
2022/02/26 09:12:38;;;;;;;19.83;5.63;;;6.80;99.90;;;;;;5125057;27;20415;-53
2022/02/26 09:15:04;;;;;;;37.53;6.45;;;7.00;99.90;;;;;;5129532;27;20015;-53
2022/02/26 09:17:30;;;;;;;23.85;4.75;;;7.00;99.90;;;;;;5122443;27;20134;-53
2022/02/26 09:19:55;;;;;;;20.02;5.22;;;7.30;99.90;;;;;;5115713;27;20106;-53
2022/02/26 09:22:21;;;;;;;23.13;4.97;;;7.80;99.90;;;;;;5112065;27;20050;-51
2022/02/26 09:24:47;;;;;;;14.85;4.82;;;9.10;99.90;;;;;;5112001;28;20031;-50
2022/02/26 09:27:12;;;;;;;18.73;5.65;;;11.00;99.90;;;;;;5112229;27;20377;-51
2022/02/26 09:29:38;;;;;;;19.02;5.03;;;12.50;99.00;;;;;;5113823;27;20038;-53
2022/02/26 09:32:04;;;;;;;21.63;4.68;;;13.60;91.70;;;;;;5115962;27;20038;-53
2022/02/26 09:34:29;;;;;;;13.50;4.50;;;15.20;88.00;;;;;;5144527;27;20110;-53
2022/02/26 09:36:55;;;;;;;14.88;5.03;;;16.10;82.90;;;;;;5113226;27;20110;-53
2022/02/26 09:39:22;;;;;;;16.92;4.97;;;16.70;76.30;;;;;;5111677;28;20066;-54
2022/02/26 09:41:50;;;;;;;15.40;4.18;;;17.20;70.30;;;;;;5111293;27;20028;-53
2022/02/26 09:44:16;;;;;;;14.98;4.20;;;18.00;68.00;;;;;;5112156;28;20125;-53
2022/02/26 09:46:42;;;;;;;16.35;4.65;;;18.40;66.10;;;;;;5111301;28;20095;-54
2022/02/26 09:49:08;;;;;;;13.27;4.32;;;19.20;63.20;;;;;;5143475;27;20114;-54
2022/02/26 09:51:35;;;;;;;16.55;4.50;;;20.30;59.10;;;;;;5133274;27;20107;-53
2022/02/26 09:54:01;;;;;;;9.73;3.78;;;21.30;55.80;;;;;;5139728;27;20030;-53
2022/02/26 09:56:26;;;;;;;12.90;4.07;;;21.50;53.10;;;;;;5132320;27;20104;-53
2022/02/26 09:58:52;;;;;;;11.77;4.38;;;21.50;52.70;;;;;;5131580;27;20537;-53
2022/02/26 10:01:18;;;;;;;19.63;4.65;;;21.80;50.90;;;;;;5124598;27;20392;-53
2022/02/26 10:03:44;;;;;;;15.07;4.47;;;21.90;50.40;;;;;;5122025;27;20556;-53
2022/02/26 10:06:14;;;;;;;12.82;3.97;;;22.20;50.80;;;;;;5121566;27;20106;-53
2022/02/26 10:08:42;;;;;;;14.32;4.60;;;22.30;50.00;;;;;;5126459;27;20023;-53
2022/02/26 10:11:29;;;;;;;11.95;4.13;;;22.80;48.70;;;;;;5123549;27;20543;-53
2022/02/26 10:14:00;;;;;;;16.15;4.90;;;22.60;48.70;;;;;;5121695;27;20058;-54
2022/02/26 10:16:44;;;;;;;18.45;4.55;;;23.10;48.20;;;;;;5120022;27;20089;-54
2022/02/26 10:19:10;;;;;;;12.13;3.92;;;22.70;47.40;;;;;;5120572;27;20015;-53
2022/02/26 10:21:41;;;;;;;10.45;4.05;;;23.20;47.30;;;;;;5118887;27;20545;-53
2022/02/26 10:24:07;;;;;;;17.33;4.03;;;23.30;47.00;;;;;;5124373;27;20117;-53
2022/02/26 10:26:32;;;;;;;14.73;4.22;;;23.80;45.70;;;;;;5124240;27;20551;-54
2022/02/26 10:29:07;;;;;;;12.70;3.92;;;24.00;45.30;;;;;;5119579;27;20114;-53
2022/02/26 10:31:44;;;;;;;14.30;4.32;;;24.00;44.70;;;;;;5120872;27;20028;-53
2022/02/26 10:34:23;;;;;;;13.50;4.13;;;23.40;45.60;;;;;;5125224;27;20384;-53
2022/02/26 10:36:56;;;;;;;14.82;3.65;;;23.90;46.00;;;;;;5122781;27;20087;-53
2022/02/26 10:39:37;;;;;;;11.48;3.72;;;22.90;44.00;;;;;;5118776;27;20024;-53
2022/02/26 10:42:05;;;;;;;7.57;3.15;;;23.20;45.90;;;;;;5120529;27;20054;-53
2022/02/26 10:44:30;;;;;;;10.80;3.47;;;23.90;45.50;;;;;;5120636;27;20027;-53
2022/02/26 10:47:11;;;;;;;11.43;3.60;;;23.50;45.80;;;;;;5119027;27;20038;-54
2022/02/26 10:49:43;;;;;;;11.82;3.50;;;22.20;45.60;;;;;;5119909;27;20031;-53
2022/02/26 10:52:09;;;;;;;10.10;3.38;;;21.50;47.70;;;;;;5118060;27;20028;-53
2022/02/26 10:54:37;;;;;;;11.32;3.90;;;21.30;47.60;;;;;;5118545;27;20062;-53
2022/02/26 10:57:04;;;;;;;11.30;4.07;;;21.70;47.50;;;;;;5118005;27;20012;-53
2022/02/26 10:59:35;;;;;;;11.63;3.88;;;22.20;46.90;;;;;;5118474;27;20038;-53
2022/02/26 11:02:08;;;;;;;14.82;4.10;;;23.00;44.40;;;;;;5120022;27;20169;-54
2022/02/26 11:04:35;;;;;;;12.38;3.78;;;23.30;46.70;;;;;;5120170;27;20057;-54
2022/02/26 11:07:01;;;;;;;12.27;3.67;;;23.30;46.00;;;;;;5120878;27;20019;-54
2022/02/26 11:09:27;;;;;;;11.52;3.80;;;22.80;44.10;;;;;;5115242;27;20031;-54
2022/02/26 11:11:55;;;;;;;10.95;3.30;;;23.10;44.40;;;;;;5125881;27;20027;-54
2022/02/26 11:14:23;;;;;;;8.45;2.88;;;23.00;44.10;;;;;;5122809;27;20027;-54
2022/02/26 11:16:51;;;;;;;12.32;3.22;;;22.60;44.80;;;;;;5130212;27;20038;-53
2022/02/26 11:19:22;;;;;;;12.88;3.90;;;22.40;43.50;;;;;;5128283;27;20027;-54
2022/02/26 11:21:49;;;;;;;10.65;3.15;;;23.00;44.10;;;;;;5127312;27;20019;-54
2022/02/26 11:24:16;;;;;;;11.65;3.75;;;23.00;44.70;;;;;;5130355;27;20388;-54
2022/02/26 11:26:43;;;;;;;9.70;3.05;;;22.70;42.60;;;;;;5122297;27;20027;-54
2022/02/26 11:29:10;;;;;;;11.20;3.42;;;22.40;44.10;;;;;;5117072;27;20290;-53
2022/02/26 11:31:41;;;;;;;17.45;3.45;;;21.30;45.10;;;;;;5125882;27;20028;-53
2022/02/26 11:34:07;;;;;;;15.48;4.15;;;20.20;46.50;;;;;;5129531;27;20031;-53
2022/02/26 11:36:47;;;;;;;11.52;3.33;;;19.50;48.60;;;;;;5133093;27;20534;-53
2022/02/26 11:39:35;;;;;;;8.52;3.03;;;19.60;50.10;;;;;;5108917;28;20076;-54
2022/02/26 11:42:18;;;;;;;8.43;2.78;;;20.20;47.20;;;;;;5123239;27;20031;-54
2022/02/26 11:44:51;;;;;;;9.43;2.63;;;20.10;47.20;;;;;;5129454;27;20549;-54
2022/02/26 11:47:19;;;;;;;9.85;2.80;;;20.60;47.70;;;;;;5129937;27;20027;-54
2022/02/26 11:50:23;;;;;;;15.35;3.35;;;21.60;45.80;;;;;;5132381;27;20019;-54
2022/02/26 11:52:57;;;;;;;11.25;3.20;;;21.80;47.40;;;;;;5066377;28;20085;-54
2022/02/26 11:55:36;;;;;;;10.15;3.10;;;22.00;45.50;;;;;;5129498;27;20020;-54
2022/02/26 11:58:04;;;;;;;11.82;3.17;;;22.10;45.80;;;;;;5147173;27;20387;-54
2022/02/26 12:00:46;;;;;;;10.90;3.22;;;21.90;45.70;;;;;;5128498;27;20031;-53
2022/02/26 12:03:25;;;;;;;9.93;2.97;;;21.30;44.80;;;;;;5118506;27;20035;-53
2022/02/26 12:06:16;;;;;;;6.75;2.65;;;20.50;45.30;;;;;;5128930;27;20092;-53
2022/02/26 12:08:47;;;;;;;9.35;3.15;;;20.30;47.40;;;;;;5126496;27;20114;-53
2022/02/26 12:11:30;;;;;;;8.25;3.22;;;20.50;46.50;;;;;;5120935;27;20049;-53
2022/02/26 12:13:57;;;;;;;9.65;3.20;;;20.50;46.30;;;;;;5122815;27;20019;-53
2022/02/26 12:16:25;;;;;;;9.32;2.70;;;20.90;45.40;;;;;;5124519;27;20496;-54
2022/02/26 12:19:01;;;;;;;7.40;2.60;;;21.40;43.60;;;;;;5120022;27;20029;-53
2022/02/26 12:21:34;;;;;;;12.65;3.05;;;21.70;43.70;;;;;;5120088;27;20035;-54
2022/02/26 12:24:21;;;;;;;7.80;2.28;;;21.60;44.30;;;;;;5119208;27;20023;-53
2022/02/26 12:27:00;;;;;;;10.40;2.72;;;21.60;44.00;;;;;;5126925;27;20020;-53
2022/02/26 12:29:26;;;;;;;9.13;2.95;;;21.40;42.70;;;;;;5121122;27;20103;-54
2022/02/26 12:31:59;;;;;;;10.48;3.00;;;21.10;45.10;;;;;;5124376;27;20032;-53
2022/02/26 12:34:26;;;;;;;7.68;2.92;;;20.90;45.20;;;;;;5121207;27;20019;-53
2022/02/26 12:37:15;;;;;;;12.30;3.20;;;20.90;45.00;;;;;;5123675;27;20548;-53
2022/02/26 12:39:50;;;;;;;9.23;3.13;;;20.80;45.00;;;;;;5115565;27;20361;-52
2022/02/26 12:42:25;;;;;;;6.78;2.60;;;19.90;44.40;;;;;;5125025;27;20054;-52
2022/02/26 12:44:56;;;;;;;10.50;2.80;;;19.10;49.00;;;;;;5121347;27;20019;-52
2022/02/26 12:47:24;;;;;;;6.72;2.78;;;18.70;50.50;;;;;;5118293;27;20055;-52